Terminal Aerodrome Forecast
Issued by NWS

Home | Current Version | Previous Version | Text Only | Print | Product List | Glossary On
Versions: 1 2 3 4 5 6 7 8 9 10 11 12 13 14 15 16 17
000
FTUS46 KSEW 260200 AAA
TAFHQM
TAF AMD
KHQM 260226Z 2602/2624 26030G45KT 5SM -RA BR BKN030 OVC050
     FM260400 25032G48KT 3SM -RA BR BKN020 OVC050
     FM260600 24022G33KT P6SM -RA BKN020 OVC035
     FM261200 23014G22KT P6SM -SHRA BKN015 BKN035=

USA.gov is the U.S. government's official web portal to all federal, state and local government web resources and services.